createdAt,value
2019-02-19T00:01:41.147Z,14.73
2019-02-19T00:04:07.161Z,14.87
2019-02-19T00:06:33.129Z,15.27
2019-02-19T00:08:59.100Z,14.53
2019-02-19T00:11:25.113Z,15.17
2019-02-19T00:13:51.823Z,13.77
2019-02-19T00:16:17.776Z,15.90
2019-02-19T00:18:43.777Z,15.53
2019-02-19T00:21:09.733Z,15.07
2019-02-19T00:23:36.445Z,15.47
2019-02-19T00:26:03.151Z,15.17
2019-02-19T00:28:29.128Z,14.97
2019-02-19T00:30:55.843Z,15.80
2019-02-19T00:33:21.836Z,15.10
2019-02-19T00:35:47.787Z,15.17
2019-02-19T00:38:13.770Z,15.57
2019-02-19T00:40:39.729Z,15.33
2019-02-19T00:43:05.701Z,15.63
2019-02-19T00:45:31.694Z,14.57
2019-02-19T00:47:57.688Z,14.57
2019-02-19T00:50:23.650Z,14.87
2019-02-19T00:52:49.619Z,15.43
2019-02-19T00:55:15.603Z,14.90
2019-02-19T00:57:41.572Z,16.43
2019-02-19T01:00:07.587Z,16.03
2019-02-19T01:02:33.537Z,16.83
2019-02-19T01:05:00.356Z,15.27
2019-02-19T01:07:26.301Z,15.37
2019-02-19T01:09:52.283Z,15.00
2019-02-19T01:12:18.249Z,15.57
2019-02-19T01:14:44.988Z,14.73
2019-02-19T01:17:10.955Z,14.10
2019-02-19T01:19:36.917Z,14.83
2019-02-19T01:22:02.897Z,13.83
2019-02-19T01:24:28.895Z,13.37
2019-02-19T01:26:55.588Z,13.80
2019-02-19T01:29:21.533Z,14.37
2019-02-19T01:31:47.518Z,13.00
2019-02-19T01:34:13.506Z,14.27
2019-02-19T01:36:40.254Z,13.53
2019-02-19T01:39:06.226Z,13.07
2019-02-19T01:41:32.216Z,13.33
2019-02-19T01:43:58.161Z,12.23
2019-02-19T01:46:24.132Z,11.70
2019-02-19T01:48:50.830Z,11.30
2019-02-19T01:51:16.810Z,10.13
2019-02-19T01:53:43.496Z,9.63
2019-02-19T01:56:09.482Z,9.87
2019-02-19T01:58:35.419Z,9.17
2019-02-19T02:01:01.388Z,7.77
2019-02-19T02:03:27.331Z,7.67
2019-02-19T02:05:54.050Z,8.07
2019-02-19T02:08:20.008Z,6.50
2019-02-19T02:10:46.003Z,6.53
2019-02-19T02:13:11.945Z,6.17
2019-02-19T02:15:42.756Z,6.13
2019-02-19T02:18:04.684Z,6.10
2019-02-19T02:20:31.368Z,6.53
2019-02-19T02:22:57.322Z,6.27
2019-02-19T02:25:23.286Z,6.00
2019-02-19T02:27:50.004Z,5.53
2019-02-19T02:30:15.962Z,5.57
2019-02-19T02:32:41.932Z,5.53
2019-02-19T02:35:07.893Z,6.23
2019-02-19T02:37:33.945Z,6.07
2019-02-19T02:39:59.894Z,6.20
2019-02-19T02:42:25.868Z,6.77
2019-02-19T02:44:52.566Z,6.07
2019-02-19T02:47:18.573Z,5.60
2019-02-19T02:49:44.546Z,6.47
2019-02-19T02:52:11.265Z,5.97
2019-02-19T02:54:37.227Z,5.97
2019-02-19T02:57:03.175Z,6.37
2019-02-19T02:59:29.150Z,5.83
2019-02-19T03:01:55.116Z,6.57
2019-02-19T03:04:21.100Z,6.10
2019-02-19T03:06:47.805Z,5.70
2019-02-19T03:09:13.800Z,6.83
2019-02-19T03:11:39.759Z,5.90
2019-02-19T03:14:05.737Z,6.83
2019-02-19T03:16:31.682Z,6.23
2019-02-19T03:18:57.633Z,7.20
2019-02-19T03:21:23.591Z,6.43
2019-02-19T03:23:49.576Z,6.13
2019-02-19T03:26:15.532Z,6.57
2019-02-19T03:28:41.514Z,6.63
2019-02-19T03:31:07.472Z,6.27
2019-02-19T03:33:33.502Z,6.17
2019-02-19T03:35:59.486Z,5.77
2019-02-19T03:38:25.434Z,5.77
2019-02-19T03:40:51.425Z,6.37
2019-02-19T03:43:17.379Z,6.13
2019-02-19T03:45:44.097Z,6.23
2019-02-19T03:48:10.054Z,6.93
2019-02-19T03:50:36.042Z,6.00
2019-02-19T03:53:02.006Z,6.73
2019-02-19T03:55:27.988Z,5.73
2019-02-19T03:57:53.941Z,6.47
2019-02-19T04:00:19.932Z,6.43
2019-02-19T04:02:46.048Z,6.23
2019-02-19T04:05:12.034Z,6.53
2019-02-19T04:07:37.988Z,6.80
2019-02-19T04:10:03.935Z,6.67
2019-02-19T04:12:30.657Z,6.47
2019-02-19T04:14:56.610Z,6.43
2019-02-19T04:17:23.323Z,6.80
2019-02-19T04:19:49.270Z,6.23
2019-02-19T04:22:15.251Z,6.60
2019-02-19T04:24:41.191Z,6.47
2019-02-19T04:27:07.175Z,7.27
2019-02-19T04:29:33.112Z,6.57
2019-02-19T04:31:59.101Z,6.97
2019-02-19T04:34:25.066Z,6.90
2019-02-19T04:36:51.009Z,7.67
2019-02-19T04:39:16.981Z,7.63
2019-02-19T04:41:42.923Z,7.03
2019-02-19T04:44:08.908Z,6.63
2019-02-19T04:46:34.869Z,6.97
2019-02-19T04:49:00.844Z,7.57
2019-02-19T04:51:27.552Z,7.40
2019-02-19T04:53:53.536Z,6.83
2019-02-19T04:56:19.483Z,7.23
2019-02-19T04:58:45.456Z,7.03
2019-02-19T05:01:11.427Z,8.00
2019-02-19T05:03:38.192Z,7.83
2019-02-19T05:06:04.157Z,6.73
2019-02-19T05:08:30.166Z,7.43
2019-02-19T05:10:56.112Z,7.70
2019-02-19T05:13:22.124Z,7.57
2019-02-19T05:15:48.056Z,6.87
2019-02-19T05:18:14.002Z,8.67
2019-02-19T05:20:39.971Z,7.30
2019-02-19T05:23:07.476Z,6.77
2019-02-19T05:25:32.687Z,6.83
2019-02-19T05:27:58.634Z,7.23
2019-02-19T05:30:25.380Z,7.50
2019-02-19T05:32:52.075Z,6.83
2019-02-19T05:35:18.064Z,7.67
2019-02-19T05:37:44.033Z,7.27
2019-02-19T05:40:10.020Z,6.37
2019-02-19T05:42:35.978Z,6.47
2019-02-19T05:45:01.975Z,6.20
2019-02-19T05:47:27.958Z,7.37
2019-02-19T05:49:53.944Z,7.20
2019-02-19T05:52:19.965Z,7.60
2019-02-19T05:54:45.970Z,8.10
2019-02-19T05:57:11.952Z,6.90
2019-02-19T05:59:37.912Z,6.43
2019-02-19T06:02:03.901Z,5.50
2019-02-19T06:04:30.588Z,6.83
2019-02-19T06:06:56.592Z,7.00
2019-02-19T06:09:22.556Z,7.13
2019-02-19T06:11:48.544Z,6.87
2019-02-19T06:14:14.505Z,6.07
2019-02-19T06:16:40.491Z,6.23
2019-02-19T06:19:07.076Z,7.33
2019-02-19T06:21:33.819Z,6.57
2019-02-19T06:23:59.773Z,6.90
2019-02-19T06:26:25.857Z,7.33
2019-02-19T06:28:51.972Z,6.47
2019-02-19T06:31:17.969Z,7.10
2019-02-19T06:33:43.946Z,6.73
2019-02-19T06:36:10.665Z,7.60
2019-02-19T06:38:36.678Z,6.17
2019-02-19T06:41:02.628Z,6.50
2019-02-19T06:43:29.382Z,5.63
2019-02-19T06:45:56.081Z,6.60
2019-02-19T06:48:22.039Z,6.87
2019-02-19T06:50:48.745Z,6.83
2019-02-19T06:53:14.734Z,6.90
2019-02-19T06:55:40.698Z,7.40
2019-02-19T06:58:06.686Z,6.10
2019-02-19T07:00:32.667Z,5.93
2019-02-19T07:02:59.401Z,6.00
2019-02-19T07:05:25.367Z,6.30
2019-02-19T07:07:51.374Z,6.00
2019-02-19T07:10:17.339Z,6.30
2019-02-19T07:12:43.335Z,5.07
2019-02-19T07:15:09.299Z,6.40
2019-02-19T07:17:35.289Z,6.17
2019-02-19T07:20:01.585Z,6.73
2019-02-19T07:22:28.280Z,6.20
2019-02-19T07:24:54.308Z,6.57
2019-02-19T07:27:20.264Z,5.97
2019-02-19T07:29:47.015Z,5.63
2019-02-19T07:32:14.207Z,5.97
2019-02-19T07:34:41.039Z,5.87
2019-02-19T07:37:06.517Z,6.37
2019-02-19T07:39:33.231Z,5.90
2019-02-19T07:41:59.946Z,6.10
2019-02-19T07:44:25.971Z,6.17
2019-02-19T07:46:51.931Z,6.20
2019-02-19T07:49:17.893Z,6.40
2019-02-19T07:51:43.865Z,6.10
2019-02-19T07:54:10.613Z,5.03
2019-02-19T07:56:36.594Z,6.80
2019-02-19T07:59:02.565Z,5.77
2019-02-19T08:01:29.275Z,5.80
2019-02-19T08:03:55.262Z,4.67
2019-02-19T08:06:22.219Z,5.37
2019-02-19T08:08:47.268Z,7.13
2019-02-19T08:11:13.260Z,5.50
2019-02-19T08:13:39.237Z,6.13
2019-02-19T08:16:05.229Z,6.30
2019-02-19T08:18:31.187Z,5.13
2019-02-19T08:20:57.173Z,5.73
2019-02-19T08:23:23.884Z,4.50
2019-02-19T08:25:49.904Z,5.00
2019-02-19T08:28:15.897Z,5.23
2019-02-19T08:30:41.884Z,6.27
2019-02-19T08:33:07.841Z,4.60
2019-02-19T08:35:33.820Z,4.90
2019-02-19T08:37:59.803Z,5.70
2019-02-19T08:40:25.769Z,5.30
2019-02-19T08:42:51.793Z,4.43
2019-02-19T08:45:17.767Z,4.80
2019-02-19T08:47:43.770Z,4.70
2019-02-19T08:50:10.478Z,5.07
2019-02-19T08:52:36.477Z,5.40
2019-02-19T08:55:02.441Z,4.73
2019-02-19T08:57:29.160Z,5.80
2019-02-19T08:59:55.143Z,4.57
2019-02-19T09:02:21.141Z,5.80
2019-02-19T09:04:47.111Z,5.03
2019-02-19T09:07:13.107Z,4.33
2019-02-19T09:09:39.087Z,5.00
2019-02-19T09:12:05.817Z,4.70
2019-02-19T09:14:31.803Z,4.23
2019-02-19T09:16:57.784Z,4.27
2019-02-19T09:19:24.523Z,4.30
2019-02-19T09:21:50.483Z,4.87
2019-02-19T09:24:16.476Z,5.10
2019-02-19T09:26:42.437Z,4.43
2019-02-19T09:29:08.411Z,5.90
2019-02-19T09:31:35.140Z,4.70
2019-02-19T09:34:01.140Z,5.10
2019-02-19T09:36:27.124Z,4.67
2019-02-19T09:38:53.853Z,4.37
2019-02-19T09:41:20.562Z,4.63
2019-02-19T09:43:46.553Z,4.73
2019-02-19T09:46:12.545Z,4.83
2019-02-19T09:48:38.546Z,4.13
2019-02-19T09:51:05.262Z,4.97
2019-02-19T09:53:31.266Z,5.00
2019-02-19T09:55:57.231Z,4.07
2019-02-19T09:58:23.968Z,4.73
2019-02-19T10:00:49.931Z,4.07
2019-02-19T10:03:15.944Z,4.70
2019-02-19T10:05:41.924Z,4.80
2019-02-19T10:08:07.906Z,4.23
2019-02-19T10:10:33.887Z,4.80
2019-02-19T10:13:00.584Z,4.43
2019-02-19T10:15:26.593Z,3.80
2019-02-19T10:17:52.558Z,4.23
2019-02-19T10:20:18.543Z,3.80
2019-02-19T10:22:44.508Z,3.73
2019-02-19T10:25:11.255Z,4.03
2019-02-19T10:27:37.213Z,3.90
2019-02-19T10:30:03.200Z,3.67
2019-02-19T10:32:29.933Z,3.50
2019-02-19T10:34:55.954Z,3.63
2019-02-19T10:37:21.968Z,3.93
2019-02-19T10:39:47.944Z,3.57
2019-02-19T10:42:13.944Z,3.50
2019-02-19T10:44:40.633Z,3.63
2019-02-19T10:47:06.642Z,3.70
2019-02-19T10:49:32.636Z,3.60
2019-02-19T10:51:58.645Z,3.90
2019-02-19T10:54:24.613Z,3.80
2019-02-19T10:56:50.606Z,4.10
2019-02-19T10:59:16.589Z,3.93
2019-02-19T11:01:42.586Z,3.40
2019-02-19T11:04:08.565Z,3.20
2019-02-19T11:06:35.313Z,3.23
2019-02-19T11:09:02.027Z,3.50
2019-02-19T11:11:28.010Z,3.87
2019-02-19T11:13:53.972Z,3.80
2019-02-19T11:16:19.925Z,3.93
2019-02-19T11:18:45.916Z,3.50
2019-02-19T11:21:19.414Z,3.60
2019-02-19T11:23:37.944Z,3.57
2019-02-19T11:26:03.935Z,2.93
2019-02-19T11:28:29.920Z,3.80
2019-02-19T11:30:56.631Z,3.80
2019-02-19T11:33:22.631Z,3.30
2019-02-19T11:35:48.601Z,3.50
2019-02-19T11:38:14.598Z,2.93
2019-02-19T11:40:40.570Z,3.60
2019-02-19T11:43:06.573Z,3.53
2019-02-19T11:45:33.271Z,3.20
2019-02-19T11:47:59.265Z,3.13
2019-02-19T11:50:25.959Z,3.20
2019-02-19T11:52:51.946Z,3.73
2019-02-19T11:55:18.043Z,3.40
2019-02-19T11:57:44.019Z,3.20
2019-02-19T12:00:10.006Z,3.30
2019-02-19T12:02:36.008Z,3.30
2019-02-19T12:05:02.747Z,3.87
2019-02-19T12:07:28.681Z,3.30
2019-02-19T12:09:54.692Z,4.30
2019-02-19T12:12:21.384Z,3.83
2019-02-19T12:14:47.371Z,3.43
2019-02-19T12:17:13.358Z,3.23
2019-02-19T12:19:39.366Z,3.77
2019-02-19T12:22:05.330Z,3.27
2019-02-19T12:24:32.048Z,3.50
2019-02-19T12:26:58.770Z,3.77
2019-02-19T12:29:24.769Z,2.57
2019-02-19T12:31:50.741Z,3.63
2019-02-19T12:34:17.476Z,3.53
2019-02-19T12:36:44.196Z,3.30
2019-02-19T12:39:10.234Z,3.37
2019-02-19T12:41:36.346Z,2.53
2019-02-19T12:44:02.328Z,2.70
2019-02-19T12:46:28.346Z,3.17
2019-02-19T12:48:54.978Z,2.50
2019-02-19T12:51:26.270Z,3.20
2019-02-19T12:53:46.397Z,3.10
2019-02-19T12:56:12.394Z,2.70
2019-02-19T12:58:38.382Z,3.20
2019-02-19T13:01:04.352Z,2.73
2019-02-19T13:03:30.337Z,3.40
2019-02-19T13:05:56.390Z,3.27
2019-02-19T13:08:22.384Z,2.70
2019-02-19T13:10:48.367Z,3.10
2019-02-19T13:13:14.382Z,2.73
2019-02-19T13:15:40.384Z,3.37
2019-02-19T13:18:06.355Z,3.33
2019-02-19T13:20:32.344Z,3.20
2019-02-19T13:22:59.061Z,3.03
2019-02-19T13:25:25.032Z,2.83
2019-02-19T13:27:51.014Z,2.67
2019-02-19T13:30:17.018Z,3.27
2019-02-19T13:32:43.022Z,2.80
2019-02-19T13:35:08.986Z,2.80
2019-02-19T13:37:35.713Z,2.50
2019-02-19T13:40:02.430Z,2.83
2019-02-19T13:42:28.401Z,3.13
2019-02-19T13:44:55.103Z,2.70
2019-02-19T13:47:21.100Z,2.50
2019-02-19T13:49:47.059Z,2.33
2019-02-19T13:52:13.001Z,2.80
2019-02-19T13:54:38.987Z,2.97
2019-02-19T13:57:04.973Z,2.80
2019-02-19T13:59:30.950Z,3.47
2019-02-19T14:01:56.907Z,2.83
2019-02-19T14:04:23.628Z,2.90
2019-02-19T14:06:49.579Z,3.03
2019-02-19T14:09:16.298Z,2.93
2019-02-19T14:11:43.012Z,2.67
2019-02-19T14:14:09.009Z,3.23
2019-02-19T14:16:34.962Z,1.67
2019-02-19T14:19:00.961Z,2.77
2019-02-19T14:21:26.924Z,2.37
2019-02-19T14:23:52.873Z,2.63
2019-02-19T14:26:18.872Z,2.93
2019-02-19T14:28:44.844Z,2.93
2019-02-19T14:31:10.842Z,2.50
2019-02-19T14:33:36.809Z,2.37
2019-02-19T14:36:02.786Z,2.33
2019-02-19T14:38:29.469Z,2.10
2019-02-19T14:40:55.465Z,2.13
2019-02-19T14:43:21.432Z,2.07
2019-02-19T14:45:47.425Z,1.87
2019-02-19T14:48:13.368Z,2.23
2019-02-19T14:50:39.321Z,2.27
2019-02-19T14:53:06.069Z,2.20
2019-02-19T14:55:32.765Z,2.70
2019-02-19T14:57:58.746Z,2.03
2019-02-19T15:00:24.695Z,2.00
2019-02-19T15:02:50.707Z,2.13
2019-02-19T15:05:16.781Z,2.00
2019-02-19T15:07:42.729Z,2.00
2019-02-19T15:10:09.424Z,2.00
2019-02-19T15:12:35.416Z,1.90
2019-02-19T15:15:01.393Z,2.67
2019-02-19T15:17:28.140Z,2.50
2019-02-19T15:19:55.799Z,2.80
2019-02-19T15:22:21.762Z,2.60
2019-02-19T15:24:55.406Z,2.13
2019-02-19T15:27:21.368Z,2.30
2019-02-19T15:29:47.349Z,2.37
2019-02-19T15:32:13.318Z,2.17
2019-02-19T15:34:39.306Z,2.40
2019-02-19T15:37:05.279Z,3.20
2019-02-19T15:39:31.288Z,3.00
2019-02-19T15:41:57.238Z,2.40
2019-02-19T15:44:23.200Z,3.27
2019-02-19T15:46:49.944Z,2.47
2019-02-19T15:49:16.740Z,2.57
2019-02-19T15:51:42.714Z,2.20
2019-02-19T15:54:09.446Z,2.53
2019-02-19T15:56:35.422Z,2.70
2019-02-19T15:59:01.419Z,2.77
2019-02-19T16:01:28.158Z,1.90
2019-02-19T16:03:54.147Z,2.47
2019-02-19T16:06:20.143Z,2.27
2019-02-19T16:08:46.118Z,2.50
2019-02-19T16:11:12.863Z,2.47
2019-02-19T16:13:38.831Z,2.67
2019-02-19T16:16:04.796Z,2.90
2019-02-19T16:18:30.848Z,2.40
2019-02-19T16:20:56.815Z,2.90
2019-02-19T16:23:22.802Z,2.63
2019-02-19T16:25:48.773Z,2.80
2019-02-19T16:28:14.791Z,2.73
2019-02-19T16:30:40.758Z,2.83
2019-02-19T16:33:06.776Z,2.70
2019-02-19T16:35:32.741Z,2.97
2019-02-19T16:37:58.726Z,3.20
2019-02-19T16:40:24.737Z,3.13
2019-02-19T16:42:50.701Z,2.90
2019-02-19T16:45:16.691Z,2.87
2019-02-19T16:47:43.391Z,2.57
2019-02-19T16:50:09.376Z,2.53
2019-02-19T16:52:35.357Z,2.03
2019-02-19T16:55:02.094Z,2.80
2019-02-19T16:57:28.145Z,2.97
2019-02-19T16:59:54.136Z,2.40
2019-02-19T17:02:20.887Z,2.33
2019-02-19T17:04:47.624Z,2.60
2019-02-19T17:07:13.655Z,2.33
2019-02-19T17:09:39.624Z,2.53
2019-02-19T17:12:05.627Z,2.90
2019-02-19T17:14:33.497Z,3.13
2019-02-19T17:16:57.654Z,2.80
2019-02-19T17:19:23.645Z,2.90
2019-02-19T17:21:49.654Z,2.70
2019-02-19T17:24:15.630Z,2.27
2019-02-19T17:26:42.371Z,2.63
2019-02-19T17:29:08.363Z,2.20
2019-02-19T17:31:34.362Z,3.20
2019-02-19T17:34:00.323Z,2.60
2019-02-19T17:36:27.079Z,3.30
2019-02-19T17:38:53.036Z,2.53
2019-02-19T17:41:19.017Z,2.67
2019-02-19T17:43:45.758Z,2.63
2019-02-19T17:46:12.471Z,2.63
2019-02-19T17:48:38.452Z,2.87
2019-02-19T17:51:04.421Z,2.50
2019-02-19T17:53:31.175Z,2.93
2019-02-19T17:55:57.886Z,2.37
2019-02-19T17:58:23.891Z,2.77
2019-02-19T18:00:49.931Z,3.00
2019-02-19T18:03:15.940Z,2.73
2019-02-19T18:05:41.923Z,2.63
2019-02-19T18:08:07.922Z,2.70
2019-02-19T18:10:34.684Z,3.07
2019-02-19T18:13:01.394Z,2.60
2019-02-19T18:15:27.398Z,2.80
2019-02-19T18:17:53.375Z,2.67
2019-02-19T18:20:19.367Z,2.37
2019-02-19T18:22:46.090Z,2.60
2019-02-19T18:25:12.083Z,2.73
2019-02-19T18:27:38.056Z,2.13
2019-02-19T18:30:04.070Z,2.20
2019-02-19T18:32:30.018Z,2.73
2019-02-19T18:34:56.775Z,2.10
2019-02-19T18:37:22.768Z,2.37
2019-02-19T18:39:49.525Z,2.00
2019-02-19T18:42:16.221Z,2.50
2019-02-19T18:44:42.214Z,2.17
2019-02-19T18:47:08.227Z,2.20
2019-02-19T18:49:34.186Z,1.87
2019-02-19T18:52:00.161Z,2.70
2019-02-19T18:54:26.868Z,2.17
2019-02-19T18:56:53.611Z,2.07
2019-02-19T18:59:19.589Z,2.53
2019-02-19T19:01:45.588Z,2.50
2019-02-19T19:04:12.302Z,2.20
2019-02-19T19:06:38.296Z,2.10
2019-02-19T19:09:04.296Z,2.10
2019-02-19T19:11:30.297Z,2.30
2019-02-19T19:13:57.005Z,2.10
2019-02-19T19:16:22.993Z,1.97
2019-02-19T19:18:48.937Z,1.90
2019-02-19T19:21:15.706Z,2.00
2019-02-19T19:23:42.421Z,2.13
2019-02-19T19:26:08.434Z,1.77
2019-02-19T19:28:34.411Z,2.20
2019-02-19T19:31:00.437Z,1.87
2019-02-19T19:33:26.422Z,2.00
2019-02-19T19:35:52.384Z,2.07
2019-02-19T19:38:18.392Z,1.97
2019-02-19T19:40:45.074Z,2.30
2019-02-19T19:43:11.077Z,2.07
2019-02-19T19:45:37.074Z,2.57
2019-02-19T19:48:03.869Z,2.20
2019-02-19T19:50:30.754Z,2.93
2019-02-19T19:52:56.859Z,2.43
2019-02-19T19:55:23.202Z,3.10
2019-02-19T19:57:49.932Z,2.67
2019-02-19T20:00:15.880Z,2.63
2019-02-19T20:02:42.628Z,2.60
2019-02-19T20:05:08.606Z,3.40
2019-02-19T20:07:34.609Z,2.70
2019-02-19T20:10:00.612Z,2.63
2019-02-19T20:12:26.635Z,2.70
2019-02-19T20:14:52.630Z,2.47
2019-02-19T20:17:18.612Z,2.67
2019-02-19T20:19:44.629Z,2.70
2019-02-19T20:22:10.626Z,2.70
2019-02-19T20:24:36.631Z,2.83
2019-02-19T20:27:02.607Z,3.27
2019-02-19T20:29:28.590Z,2.63
2019-02-19T20:31:55.285Z,2.50
2019-02-19T20:34:21.307Z,2.93
2019-02-19T20:36:47.287Z,2.90
2019-02-19T20:39:13.280Z,3.17
2019-02-19T20:41:40.009Z,2.40
2019-02-19T20:44:06.755Z,2.50
2019-02-19T20:46:32.806Z,2.43
2019-02-19T20:48:58.779Z,3.30
2019-02-19T20:51:24.762Z,2.83
2019-02-19T20:53:50.767Z,3.30
2019-02-19T20:56:16.769Z,3.13
2019-02-19T20:58:42.772Z,3.57
2019-02-19T21:01:08.775Z,3.47
2019-02-19T21:03:34.753Z,4.07
2019-02-19T21:06:01.500Z,3.60
2019-02-19T21:08:28.214Z,3.73
2019-02-19T21:10:54.199Z,4.43
2019-02-19T21:13:20.172Z,4.57
2019-02-19T21:15:46.225Z,3.43
2019-02-19T21:18:13.730Z,4.30
2019-02-19T21:20:38.499Z,4.67
2019-02-19T21:23:04.581Z,3.70
2019-02-19T21:25:31.411Z,4.80
2019-02-19T21:27:57.355Z,4.67
2019-02-19T21:30:24.103Z,5.10
2019-02-19T21:32:50.157Z,4.10
2019-02-19T21:35:16.173Z,5.37
2019-02-19T21:37:42.231Z,4.83
2019-02-19T21:40:08.227Z,4.77
2019-02-19T21:42:34.417Z,4.73
2019-02-19T21:45:00.645Z,4.80
2019-02-19T21:47:27.393Z,5.23
2019-02-19T21:49:54.093Z,5.00
2019-02-19T21:52:20.436Z,6.07
2019-02-19T21:54:47.161Z,5.13
2019-02-19T21:57:13.170Z,5.03
2019-02-19T21:59:39.154Z,5.13
2019-02-19T22:02:05.140Z,4.67
2019-02-19T22:04:32.073Z,5.23
2019-02-19T22:06:57.219Z,5.03
2019-02-19T22:09:23.194Z,5.60
2019-02-19T22:11:49.210Z,6.00
2019-02-19T22:14:15.165Z,5.77
2019-02-19T22:16:41.158Z,5.83
2019-02-19T22:19:07.182Z,5.27
2019-02-19T22:21:33.552Z,5.87
2019-02-19T22:24:00.654Z,5.37
2019-02-19T22:26:27.575Z,5.87
2019-02-19T22:28:53.562Z,6.30
2019-02-19T22:31:21.182Z,6.20
2019-02-19T22:33:48.232Z,7.37
2019-02-19T22:36:15.019Z,7.37
2019-02-19T22:38:41.756Z,7.23
2019-02-19T22:41:07.706Z,7.83
2019-02-19T22:43:34.392Z,7.30
2019-02-19T22:46:00.411Z,8.40
2019-02-19T22:48:26.382Z,8.00
2019-02-19T22:50:53.101Z,8.27
2019-02-19T22:53:19.835Z,8.37
2019-02-19T22:55:45.959Z,8.13
2019-02-19T22:58:11.901Z,7.87
2019-02-19T23:00:38.604Z,7.77
2019-02-19T23:03:04.556Z,7.03
2019-02-19T23:05:30.539Z,6.33
2019-02-19T23:07:56.508Z,6.80
2019-02-19T23:10:22.487Z,6.80
2019-02-19T23:12:48.447Z,7.53
2019-02-19T23:15:15.139Z,7.93
2019-02-19T23:17:41.179Z,6.67
2019-02-19T23:20:07.142Z,6.77
2019-02-19T23:22:33.867Z,6.33
2019-02-19T23:24:59.831Z,6.27
2019-02-19T23:27:25.827Z,6.27
2019-02-19T23:29:52.518Z,6.13
2019-02-19T23:32:18.549Z,6.37
2019-02-19T23:34:44.531Z,6.50
2019-02-19T23:37:11.235Z,5.93
2019-02-19T23:39:43.343Z,6.50
2019-02-19T23:42:03.225Z,4.80
2019-02-19T23:44:29.186Z,5.50
2019-02-19T23:46:55.132Z,4.83
2019-02-19T23:49:21.856Z,5.70
2019-02-19T23:51:47.830Z,5.33
2019-02-19T23:54:13.812Z,5.63
2019-02-19T23:56:39.775Z,5.80
2019-02-19T23:59:05.765Z,5.43
